sensor_id;sensor_type;location;lat;lon;timestamp;P1;durP1;ratioP1;P2;durP2;ratioP2
21254;SDS011;10785;50.674;17.954;2023-07-09T00:01:50;3.70;;;2.53;;
21254;SDS011;10785;50.674;17.954;2023-07-09T00:04:19;5.45;;;2.20;;
21254;SDS011;10785;50.674;17.954;2023-07-09T00:06:48;2.40;;;1.98;;
21254;SDS011;10785;50.674;17.954;2023-07-09T00:09:17;2.65;;;2.03;;
21254;SDS011;10785;50.674;17.954;2023-07-09T00:11:49;7.30;;;3.95;;
21254;SDS011;10785;50.674;17.954;2023-07-09T00:14:20;2.58;;;1.90;;
21254;SDS011;10785;50.674;17.954;2023-07-09T00:16:49;2.97;;;2.53;;
21254;SDS011;10785;50.674;17.954;2023-07-09T00:19:19;2.05;;;1.75;;
21254;SDS011;10785;50.674;17.954;2023-07-09T00:21:51;3.70;;;1.95;;
21254;SDS011;10785;50.674;17.954;2023-07-09T00:24:21;2.15;;;1.65;;
21254;SDS011;10785;50.674;17.954;2023-07-09T00:26:50;5.20;;;2.15;;
21254;SDS011;10785;50.674;17.954;2023-07-09T00:29:20;2.40;;;1.92;;
21254;SDS011;10785;50.674;17.954;2023-07-09T00:31:49;3.47;;;3.08;;
21254;SDS011;10785;50.674;17.954;2023-07-09T00:34:18;2.15;;;1.98;;
21254;SDS011;10785;50.674;17.954;2023-07-09T00:36:49;7.00;;;2.25;;
21254;SDS011;10785;50.674;17.954;2023-07-09T00:39:18;4.88;;;2.00;;
21254;SDS011;10785;50.674;17.954;2023-07-09T00:41:48;4.35;;;2.38;;
21254;SDS011;10785;50.674;17.954;2023-07-09T00:44:27;6.38;;;2.78;;
21254;SDS011;10785;50.674;17.954;2023-07-09T00:49:48;2.90;;;2.70;;
21254;SDS011;10785;50.674;17.954;2023-07-09T00:52:21;2.17;;;2.00;;
21254;SDS011;10785;50.674;17.954;2023-07-09T00:54:54;3.42;;;2.20;;
21254;SDS011;10785;50.674;17.954;2023-07-09T00:57:24;7.38;;;3.08;;
21254;SDS011;10785;50.674;17.954;2023-07-09T00:59:56;1.75;;;1.50;;
21254;SDS011;10785;50.674;17.954;2023-07-09T01:02:34;3.58;;;2.70;;
21254;SDS011;10785;50.674;17.954;2023-07-09T01:05:03;2.65;;;2.42;;
21254;SDS011;10785;50.674;17.954;2023-07-09T01:07:33;4.25;;;3.20;;
21254;SDS011;10785;50.674;17.954;2023-07-09T01:10:01;3.13;;;2.45;;
21254;SDS011;10785;50.674;17.954;2023-07-09T01:12:31;5.25;;;3.65;;
21254;SDS011;10785;50.674;17.954;2023-07-09T01:15:01;3.80;;;2.08;;
21254;SDS011;10785;50.674;17.954;2023-07-09T01:17:31;3.28;;;2.25;;
21254;SDS011;10785;50.674;17.954;2023-07-09T01:20:00;2.47;;;1.83;;
21254;SDS011;10785;50.674;17.954;2023-07-09T01:22:31;3.75;;;3.03;;
21254;SDS011;10785;50.674;17.954;2023-07-09T01:25:00;5.93;;;2.35;;
21254;SDS011;10785;50.674;17.954;2023-07-09T01:27:36;2.97;;;2.25;;
21254;SDS011;10785;50.674;17.954;2023-07-09T01:30:08;4.18;;;2.08;;
21254;SDS011;10785;50.674;17.954;2023-07-09T01:32:41;9.77;;;3.50;;
21254;SDS011;10785;50.674;17.954;2023-07-09T01:35:13;2.55;;;2.25;;
21254;SDS011;10785;50.674;17.954;2023-07-09T01:37:45;5.45;;;2.85;;
21254;SDS011;10785;50.674;17.954;2023-07-09T01:40:15;3.28;;;2.13;;
21254;SDS011;10785;50.674;17.954;2023-07-09T01:42:56;4.20;;;3.20;;
21254;SDS011;10785;50.674;17.954;2023-07-09T01:45:26;7.45;;;1.67;;
21254;SDS011;10785;50.674;17.954;2023-07-09T01:47:56;3.47;;;2.33;;
21254;SDS011;10785;50.674;17.954;2023-07-09T01:50:25;3.53;;;2.67;;
21254;SDS011;10785;50.674;17.954;2023-07-09T01:52:58;5.57;;;2.47;;
21254;SDS011;10785;50.674;17.954;2023-07-09T01:55:27;10.02;;;3.95;;
21254;SDS011;10785;50.674;17.954;2023-07-09T01:57:57;9.20;;;3.38;;
21254;SDS011;10785;50.674;17.954;2023-07-09T02:00:26;4.53;;;2.17;;
21254;SDS011;10785;50.674;17.954;2023-07-09T02:02:55;3.33;;;3.03;;
21254;SDS011;10785;50.674;17.954;2023-07-09T02:05:25;2.97;;;2.67;;
21254;SDS011;10785;50.674;17.954;2023-07-09T02:07:54;5.15;;;3.47;;
21254;SDS011;10785;50.674;17.954;2023-07-09T02:10:24;3.92;;;2.80;;
21254;SDS011;10785;50.674;17.954;2023-07-09T02:12:53;3.13;;;2.38;;
21254;SDS011;10785;50.674;17.954;2023-07-09T02:15:22;3.95;;;2.28;;
21254;SDS011;10785;50.674;17.954;2023-07-09T02:17:51;5.18;;;3.97;;
21254;SDS011;10785;50.674;17.954;2023-07-09T02:20:39;2.72;;;2.33;;
21254;SDS011;10785;50.674;17.954;2023-07-09T02:23:08;2.22;;;1.70;;
21254;SDS011;10785;50.674;17.954;2023-07-09T02:25:39;4.70;;;2.75;;
21254;SDS011;10785;50.674;17.954;2023-07-09T02:28:08;4.07;;;2.45;;
21254;SDS011;10785;50.674;17.954;2023-07-09T02:30:37;3.83;;;2.65;;
21254;SDS011;10785;50.674;17.954;2023-07-09T02:33:05;15.43;;;4.15;;
21254;SDS011;10785;50.674;17.954;2023-07-09T02:35:34;1.83;;;1.67;;
21254;SDS011;10785;50.674;17.954;2023-07-09T02:38:03;2.75;;;2.55;;
21254;SDS011;10785;50.674;17.954;2023-07-09T02:40:32;7.53;;;2.88;;
21254;SDS011;10785;50.674;17.954;2023-07-09T02:43:03;3.28;;;2.97;;
21254;SDS011;10785;50.674;17.954;2023-07-09T02:45:31;2.70;;;2.20;;
21254;SDS011;10785;50.674;17.954;2023-07-09T02:48:00;1.75;;;1.17;;
21254;SDS011;10785;50.674;17.954;2023-07-09T02:50:34;2.90;;;1.50;;
21254;SDS011;10785;50.674;17.954;2023-07-09T02:53:03;3.00;;;2.35;;
21254;SDS011;10785;50.674;17.954;2023-07-09T02:55:32;4.00;;;3.00;;
21254;SDS011;10785;50.674;17.954;2023-07-09T02:58:03;3.90;;;2.15;;
21254;SDS011;10785;50.674;17.954;2023-07-09T03:00:31;5.10;;;2.10;;
21254;SDS011;10785;50.674;17.954;2023-07-09T03:03:00;2.75;;;2.55;;
21254;SDS011;10785;50.674;17.954;2023-07-09T03:05:29;4.43;;;3.22;;
21254;SDS011;10785;50.674;17.954;2023-07-09T03:07:57;3.22;;;2.35;;
21254;SDS011;10785;50.674;17.954;2023-07-09T03:10:27;4.57;;;3.60;;
21254;SDS011;10785;50.674;17.954;2023-07-09T03:12:56;3.05;;;2.75;;
21254;SDS011;10785;50.674;17.954;2023-07-09T03:15:26;3.85;;;2.83;;
21254;SDS011;10785;50.674;17.954;2023-07-09T03:17:55;4.47;;;2.92;;
21254;SDS011;10785;50.674;17.954;2023-07-09T03:20:23;2.97;;;2.58;;
21254;SDS011;10785;50.674;17.954;2023-07-09T03:22:52;3.80;;;3.00;;
21254;SDS011;10785;50.674;17.954;2023-07-09T03:25:21;3.22;;;2.35;;
21254;SDS011;10785;50.674;17.954;2023-07-09T03:27:50;1.10;;;1.10;;
21254;SDS011;10785;50.674;17.954;2023-07-09T03:30:18;5.28;;;2.53;;
21254;SDS011;10785;50.674;17.954;2023-07-09T03:32:48;3.58;;;2.40;;
21254;SDS011;10785;50.674;17.954;2023-07-09T03:35:17;3.80;;;2.72;;
21254;SDS011;10785;50.674;17.954;2023-07-09T03:37:46;5.55;;;3.08;;
21254;SDS011;10785;50.674;17.954;2023-07-09T03:40:20;5.15;;;3.15;;
21254;SDS011;10785;50.674;17.954;2023-07-09T03:42:49;3.17;;;2.65;;
21254;SDS011;10785;50.674;17.954;2023-07-09T03:45:18;2.50;;;2.30;;
21254;SDS011;10785;50.674;17.954;2023-07-09T03:47:46;2.25;;;1.90;;
21254;SDS011;10785;50.674;17.954;2023-07-09T03:50:17;2.90;;;2.58;;
21254;SDS011;10785;50.674;17.954;2023-07-09T03:52:46;3.13;;;2.25;;
21254;SDS011;10785;50.674;17.954;2023-07-09T03:55:14;3.42;;;2.05;;
21254;SDS011;10785;50.674;17.954;2023-07-09T03:57:43;4.35;;;2.38;;
21254;SDS011;10785;50.674;17.954;2023-07-09T04:00:12;4.28;;;2.40;;
21254;SDS011;10785;50.674;17.954;2023-07-09T04:02:42;2.65;;;2.05;;
21254;SDS011;10785;50.674;17.954;2023-07-09T04:05:12;2.95;;;2.22;;
21254;SDS011;10785;50.674;17.954;2023-07-09T04:07:41;2.22;;;1.48;;
21254;SDS011;10785;50.674;17.954;2023-07-09T04:10:09;4.43;;;2.05;;
21254;SDS011;10785;50.674;17.954;2023-07-09T04:12:38;2.78;;;2.22;;
21254;SDS011;10785;50.674;17.954;2023-07-09T04:15:07;2.38;;;1.75;;
21254;SDS011;10785;50.674;17.954;2023-07-09T04:17:43;2.55;;;1.77;;
21254;SDS011;10785;50.674;17.954;2023-07-09T04:20:13;6.00;;;2.00;;
21254;SDS011;10785;50.674;17.954;2023-07-09T04:22:42;13.10;;;2.50;;
21254;SDS011;10785;50.674;17.954;2023-07-09T04:25:11;6.13;;;2.80;;
21254;SDS011;10785;50.674;17.954;2023-07-09T04:27:40;5.43;;;3.03;;
21254;SDS011;10785;50.674;17.954;2023-07-09T04:30:10;8.88;;;2.42;;
21254;SDS011;10785;50.674;17.954;2023-07-09T04:35:34;10.05;;;1.67;;
21254;SDS011;10785;50.674;17.954;2023-07-09T04:38:03;2.85;;;1.85;;
21254;SDS011;10785;50.674;17.954;2023-07-09T04:40:32;3.65;;;2.28;;
21254;SDS011;10785;50.674;17.954;2023-07-09T04:43:00;3.20;;;2.10;;
21254;SDS011;10785;50.674;17.954;2023-07-09T04:45:29;2.90;;;2.05;;
21254;SDS011;10785;50.674;17.954;2023-07-09T04:47:57;10.40;;;3.25;;
21254;SDS011;10785;50.674;17.954;2023-07-09T04:50:26;2.78;;;2.08;;
21254;SDS011;10785;50.674;17.954;2023-07-09T04:52:56;2.25;;;1.58;;
21254;SDS011;10785;50.674;17.954;2023-07-09T04:55:26;3.20;;;1.95;;
21254;SDS011;10785;50.674;17.954;2023-07-09T04:57:55;2.75;;;1.77;;
21254;SDS011;10785;50.674;17.954;2023-07-09T05:00:23;11.43;;;2.03;;
21254;SDS011;10785;50.674;17.954;2023-07-09T05:02:52;7.78;;;2.45;;
21254;SDS011;10785;50.674;17.954;2023-07-09T05:05:21;3.60;;;2.65;;
21254;SDS011;10785;50.674;17.954;2023-07-09T05:07:50;5.53;;;2.25;;
21254;SDS011;10785;50.674;17.954;2023-07-09T05:10:20;5.88;;;2.53;;
21254;SDS011;10785;50.674;17.954;2023-07-09T05:12:49;2.95;;;2.00;;
21254;SDS011;10785;50.674;17.954;2023-07-09T05:15:19;2.78;;;2.00;;
21254;SDS011;10785;50.674;17.954;2023-07-09T05:17:49;3.70;;;2.10;;
21254;SDS011;10785;50.674;17.954;2023-07-09T05:20:18;2.30;;;1.42;;
21254;SDS011;10785;50.674;17.954;2023-07-09T05:22:48;1.67;;;1.58;;
21254;SDS011;10785;50.674;17.954;2023-07-09T05:25:16;3.20;;;2.33;;
21254;SDS011;10785;50.674;17.954;2023-07-09T05:27:47;3.30;;;2.00;;
21254;SDS011;10785;50.674;17.954;2023-07-09T05:30:15;3.25;;;1.85;;
21254;SDS011;10785;50.674;17.954;2023-07-09T05:32:44;2.22;;;1.65;;
21254;SDS011;10785;50.674;17.954;2023-07-09T05:35:13;2.05;;;1.50;;
21254;SDS011;10785;50.674;17.954;2023-07-09T05:37:42;3.80;;;1.60;;
21254;SDS011;10785;50.674;17.954;2023-07-09T05:40:10;2.53;;;2.00;;
21254;SDS011;10785;50.674;17.954;2023-07-09T05:42:39;4.82;;;2.33;;
21254;SDS011;10785;50.674;17.954;2023-07-09T05:45:10;1.75;;;1.38;;
21254;SDS011;10785;50.674;17.954;2023-07-09T05:47:39;2.25;;;1.23;;
21254;SDS011;10785;50.674;17.954;2023-07-09T05:50:07;3.17;;;2.17;;
21254;SDS011;10785;50.674;17.954;2023-07-09T05:52:37;4.57;;;1.75;;
21254;SDS011;10785;50.674;17.954;2023-07-09T05:55:06;3.95;;;2.38;;
21254;SDS011;10785;50.674;17.954;2023-07-09T05:57:35;1.52;;;1.40;;
21254;SDS011;10785;50.674;17.954;2023-07-09T06:00:04;7.15;;;2.58;;
21254;SDS011;10785;50.674;17.954;2023-07-09T06:02:44;1.90;;;1.60;;
21254;SDS011;10785;50.674;17.954;2023-07-09T06:05:13;3.45;;;2.17;;
21254;SDS011;10785;50.674;17.954;2023-07-09T06:07:42;3.28;;;2.40;;
21254;SDS011;10785;50.674;17.954;2023-07-09T06:10:10;2.35;;;1.73;;
21254;SDS011;10785;50.674;17.954;2023-07-09T06:12:40;1.83;;;1.45;;
21254;SDS011;10785;50.674;17.954;2023-07-09T06:15:09;3.28;;;1.95;;
21254;SDS011;10785;50.674;17.954;2023-07-09T06:17:38;3.17;;;1.63;;
21254;SDS011;10785;50.674;17.954;2023-07-09T06:20:09;2.08;;;1.40;;
21254;SDS011;10785;50.674;17.954;2023-07-09T06:22:38;1.90;;;1.58;;
21254;SDS011;10785;50.674;17.954;2023-07-09T06:25:07;2.08;;;1.67;;
21254;SDS011;10785;50.674;17.954;2023-07-09T06:27:36;1.65;;;1.20;;
21254;SDS011;10785;50.674;17.954;2023-07-09T06:30:05;2.17;;;1.50;;
21254;SDS011;10785;50.674;17.954;2023-07-09T06:32:34;4.25;;;1.65;;
21254;SDS011;10785;50.674;17.954;2023-07-09T06:35:03;2.33;;;1.50;;
21254;SDS011;10785;50.674;17.954;2023-07-09T06:37:34;2.97;;;1.17;;
21254;SDS011;10785;50.674;17.954;2023-07-09T06:40:02;2.47;;;1.17;;
21254;SDS011;10785;50.674;17.954;2023-07-09T06:42:34;2.03;;;1.27;;
21254;SDS011;10785;50.674;17.954;2023-07-09T06:45:11;1.55;;;1.15;;
21254;SDS011;10785;50.674;17.954;2023-07-09T06:47:40;4.22;;;1.88;;
21254;SDS011;10785;50.674;17.954;2023-07-09T06:50:08;2.28;;;1.33;;
21254;SDS011;10785;50.674;17.954;2023-07-09T06:52:39;1.85;;;1.25;;
21254;SDS011;10785;50.674;17.954;2023-07-09T06:55:08;1.48;;;1.02;;
21254;SDS011;10785;50.674;17.954;2023-07-09T06:57:36;1.42;;;1.10;;
21254;SDS011;10785;50.674;17.954;2023-07-09T07:02:59;2.38;;;1.58;;
21254;SDS011;10785;50.674;17.954;2023-07-09T07:05:28;2.95;;;1.23;;
21254;SDS011;10785;50.674;17.954;2023-07-09T07:07:58;2.05;;;1.40;;
21254;SDS011;10785;50.674;17.954;2023-07-09T07:10:27;1.40;;;1.20;;
21254;SDS011;10785;50.674;17.954;2023-07-09T07:12:56;1.17;;;0.93;;
21254;SDS011;10785;50.674;17.954;2023-07-09T07:15:25;1.88;;;1.27;;
21254;SDS011;10785;50.674;17.954;2023-07-09T07:17:54;0.93;;;0.80;;
21254;SDS011;10785;50.674;17.954;2023-07-09T07:20:22;2.97;;;1.55;;
21254;SDS011;10785;50.674;17.954;2023-07-09T07:22:51;2.13;;;1.23;;
21254;SDS011;10785;50.674;17.954;2023-07-09T07:25:21;1.52;;;1.42;;
21254;SDS011;10785;50.674;17.954;2023-07-09T07:27:50;2.22;;;1.50;;
21254;SDS011;10785;50.674;17.954;2023-07-09T07:30:20;3.40;;;1.83;;
21254;SDS011;10785;50.674;17.954;2023-07-09T07:32:51;1.45;;;0.93;;
21254;SDS011;10785;50.674;17.954;2023-07-09T07:35:20;2.17;;;1.35;;
21254;SDS011;10785;50.674;17.954;2023-07-09T07:37:49;1.90;;;1.45;;
21254;SDS011;10785;50.674;17.954;2023-07-09T07:40:17;3.63;;;1.10;;
21254;SDS011;10785;50.674;17.954;2023-07-09T07:42:47;2.50;;;1.33;;
21254;SDS011;10785;50.674;17.954;2023-07-09T07:45:16;1.58;;;0.85;;
21254;SDS011;10785;50.674;17.954;2023-07-09T07:47:45;0.98;;;0.80;;
21254;SDS011;10785;50.674;17.954;2023-07-09T07:50:13;2.00;;;1.27;;
21254;SDS011;10785;50.674;17.954;2023-07-09T07:52:42;1.23;;;0.75;;
21254;SDS011;10785;50.674;17.954;2023-07-09T07:55:10;2.15;;;1.13;;
21254;SDS011;10785;50.674;17.954;2023-07-09T07:57:43;1.10;;;0.95;;
21254;SDS011;10785;50.674;17.954;2023-07-09T08:00:13;3.10;;;1.38;;
21254;SDS011;10785;50.674;17.954;2023-07-09T08:02:46;1.35;;;1.10;;
21254;SDS011;10785;50.674;17.954;2023-07-09T08:05:14;3.53;;;1.60;;
21254;SDS011;10785;50.674;17.954;2023-07-09T08:07:43;3.45;;;1.25;;
21254;SDS011;10785;50.674;17.954;2023-07-09T08:10:12;3.30;;;1.30;;
21254;SDS011;10785;50.674;17.954;2023-07-09T08:12:42;2.58;;;1.48;;
21254;SDS011;10785;50.674;17.954;2023-07-09T08:15:10;0.70;;;0.70;;
21254;SDS011;10785;50.674;17.954;2023-07-09T08:17:41;1.90;;;1.35;;
21254;SDS011;10785;50.674;17.954;2023-07-09T08:20:10;2.55;;;1.42;;
21254;SDS011;10785;50.674;17.954;2023-07-09T08:22:42;1.20;;;0.73;;
21254;SDS011;10785;50.674;17.954;2023-07-09T08:25:11;2.97;;;1.08;;
21254;SDS011;10785;50.674;17.954;2023-07-09T08:27:40;2.97;;;0.93;;
21254;SDS011;10785;50.674;17.954;2023-07-09T08:30:09;2.10;;;0.98;;
21254;SDS011;10785;50.674;17.954;2023-07-09T08:32:39;0.90;;;0.85;;
21254;SDS011;10785;50.674;17.954;2023-07-09T08:35:08;2.55;;;1.60;;
21254;SDS011;10785;50.674;17.954;2023-07-09T08:37:41;1.85;;;1.42;;
21254;SDS011;10785;50.674;17.954;2023-07-09T08:40:12;2.45;;;1.33;;
21254;SDS011;10785;50.674;17.954;2023-07-09T08:42:43;1.38;;;1.08;;
21254;SDS011;10785;50.674;17.954;2023-07-09T08:45:29;1.77;;;1.52;;
21254;SDS011;10785;50.674;17.954;2023-07-09T08:48:05;2.45;;;1.48;;
21254;SDS011;10785;50.674;17.954;2023-07-09T08:50:38;1.08;;;0.70;;
21254;SDS011;10785;50.674;17.954;2023-07-09T08:53:11;9.07;;;1.95;;
21254;SDS011;10785;50.674;17.954;2023-07-09T08:55:46;1.50;;;0.70;;
21254;SDS011;10785;50.674;17.954;2023-07-09T08:58:21;1.17;;;0.98;;
21254;SDS011;10785;50.674;17.954;2023-07-09T09:00:53;3.47;;;1.05;;
21254;SDS011;10785;50.674;17.954;2023-07-09T09:03:29;2.72;;;1.08;;
21254;SDS011;10785;50.674;17.954;2023-07-09T09:06:09;2.80;;;1.00;;
21254;SDS011;10785;50.674;17.954;2023-07-09T09:08:40;5.38;;;1.65;;
21254;SDS011;10785;50.674;17.954;2023-07-09T09:11:17;0.70;;;0.65;;
21254;SDS011;10785;50.674;17.954;2023-07-09T09:13:50;1.75;;;1.10;;
21254;SDS011;10785;50.674;17.954;2023-07-09T09:16:24;2.33;;;1.35;;
21254;SDS011;10785;50.674;17.954;2023-07-09T09:18:57;2.17;;;1.25;;
21254;SDS011;10785;50.674;17.954;2023-07-09T09:21:29;2.08;;;1.63;;
21254;SDS011;10785;50.674;17.954;2023-07-09T09:24:05;2.13;;;1.30;;
21254;SDS011;10785;50.674;17.954;2023-07-09T09:26:42;1.50;;;0.60;;
21254;SDS011;10785;50.674;17.954;2023-07-09T09:29:12;2.60;;;0.85;;
21254;SDS011;10785;50.674;17.954;2023-07-09T09:31:43;1.90;;;1.05;;
21254;SDS011;10785;50.674;17.954;2023-07-09T09:34:18;1.40;;;1.05;;
21254;SDS011;10785;50.674;17.954;2023-07-09T09:36:48;1.33;;;0.70;;
21254;SDS011;10785;50.674;17.954;2023-07-09T09:39:17;2.28;;;1.05;;
21254;SDS011;10785;50.674;17.954;2023-07-09T09:41:46;1.33;;;1.23;;
21254;SDS011;10785;50.674;17.954;2023-07-09T09:44:17;1.05;;;0.68;;
21254;SDS011;10785;50.674;17.954;2023-07-09T09:46:48;1.55;;;1.02;;
21254;SDS011;10785;50.674;17.954;2023-07-09T09:49:18;4.20;;;0.93;;
21254;SDS011;10785;50.674;17.954;2023-07-09T09:51:47;1.55;;;1.08;;
21254;SDS011;10785;50.674;17.954;2023-07-09T09:54:17;0.65;;;0.65;;
21254;SDS011;10785;50.674;17.954;2023-07-09T09:56:48;2.03;;;1.42;;
21254;SDS011;10785;50.674;17.954;2023-07-09T09:59:18;1.75;;;1.20;;
21254;SDS011;10785;50.674;17.954;2023-07-09T10:01:55;1.75;;;1.17;;
21254;SDS011;10785;50.674;17.954;2023-07-09T10:04:26;1.88;;;0.90;;
21254;SDS011;10785;50.674;17.954;2023-07-09T10:06:56;0.50;;;0.50;;
21254;SDS011;10785;50.674;17.954;2023-07-09T10:09:29;1.02;;;0.93;;
21254;SDS011;10785;50.674;17.954;2023-07-09T10:12:09;1.52;;;0.80;;
21254;SDS011;10785;50.674;17.954;2023-07-09T10:14:46;1.40;;;1.00;;
21254;SDS011;10785;50.674;17.954;2023-07-09T10:17:25;1.52;;;0.60;;
21254;SDS011;10785;50.674;17.954;2023-07-09T10:20:09;1.98;;;1.17;;
21254;SDS011;10785;50.674;17.954;2023-07-09T10:22:51;6.40;;;1.75;;
21254;SDS011;10785;50.674;17.954;2023-07-09T10:25:30;1.08;;;0.98;;
21254;SDS011;10785;50.674;17.954;2023-07-09T10:28:09;5.63;;;0.82;;
21254;SDS011;10785;50.674;17.954;2023-07-09T10:31:00;1.65;;;0.98;;
21254;SDS011;10785;50.674;17.954;2023-07-09T10:33:40;2.65;;;1.33;;
21254;SDS011;10785;50.674;17.954;2023-07-09T10:39:14;2.10;;;1.27;;
21254;SDS011;10785;50.674;17.954;2023-07-09T10:41:46;4.15;;;0.90;;
21254;SDS011;10785;50.674;17.954;2023-07-09T10:44:18;1.20;;;0.80;;
21254;SDS011;10785;50.674;17.954;2023-07-09T10:46:55;3.50;;;1.25;;
21254;SDS011;10785;50.674;17.954;2023-07-09T10:49:34;1.23;;;1.10;;
21254;SDS011;10785;50.674;17.954;2023-07-09T10:52:10;0.90;;;0.80;;
21254;SDS011;10785;50.674;17.954;2023-07-09T10:54:48;2.15;;;1.08;;
21254;SDS011;10785;50.674;17.954;2023-07-09T10:57:27;1.50;;;1.17;;
21254;SDS011;10785;50.674;17.954;2023-07-09T10:59:57;1.88;;;1.20;;
21254;SDS011;10785;50.674;17.954;2023-07-09T11:02:27;1.67;;;0.90;;
21254;SDS011;10785;50.674;17.954;2023-07-09T11:05:01;1.30;;;0.95;;
21254;SDS011;10785;50.674;17.954;2023-07-09T11:07:32;2.13;;;1.20;;
21254;SDS011;10785;50.674;17.954;2023-07-09T11:10:05;4.95;;;0.77;;
21254;SDS011;10785;50.674;17.954;2023-07-09T11:12:43;1.63;;;1.08;;
21254;SDS011;10785;50.674;17.954;2023-07-09T11:15:20;0.70;;;0.70;;
21254;SDS011;10785;50.674;17.954;2023-07-09T11:17:53;3.42;;;1.10;;
21254;SDS011;10785;50.674;17.954;2023-07-09T11:20:33;1.25;;;1.05;;
21254;SDS011;10785;50.674;17.954;2023-07-09T11:23:05;2.95;;;1.60;;
21254;SDS011;10785;50.674;17.954;2023-07-09T11:25:45;3.72;;;1.38;;
21254;SDS011;10785;50.674;17.954;2023-07-09T11:28:16;2.10;;;1.02;;
21254;SDS011;10785;50.674;17.954;2023-07-09T11:30:46;2.67;;;1.60;;
21254;SDS011;10785;50.674;17.954;2023-07-09T11:33:16;2.10;;;0.90;;
21254;SDS011;10785;50.674;17.954;2023-07-09T11:35:51;1.00;;;0.90;;
21254;SDS011;10785;50.674;17.954;2023-07-09T11:38:23;1.75;;;1.48;;
21254;SDS011;10785;50.674;17.954;2023-07-09T11:40:53;1.75;;;1.20;;
21254;SDS011;10785;50.674;17.954;2023-07-09T11:43:26;1.00;;;0.57;;
21254;SDS011;10785;50.674;17.954;2023-07-09T11:45:56;1.50;;;1.38;;
21254;SDS011;10785;50.674;17.954;2023-07-09T11:48:31;3.25;;;1.33;;
21254;SDS011;10785;50.674;17.954;2023-07-09T11:51:03;1.40;;;1.00;;
21254;SDS011;10785;50.674;17.954;2023-07-09T11:53:40;0.88;;;0.85;;
21254;SDS011;10785;50.674;17.954;2023-07-09T11:56:12;1.40;;;0.98;;
21254;SDS011;10785;50.674;17.954;2023-07-09T11:58:48;1.98;;;1.48;;
21254;SDS011;10785;50.674;17.954;2023-07-09T12:01:18;2.83;;;1.52;;
21254;SDS011;10785;50.674;17.954;2023-07-09T12:03:50;2.42;;;1.80;;
21254;SDS011;10785;50.674;17.954;2023-07-09T12:06:20;1.60;;;1.33;;
21254;SDS011;10785;50.674;17.954;2023-07-09T12:08:53;2.58;;;1.20;;
21254;SDS011;10785;50.674;17.954;2023-07-09T12:11:23;2.33;;;1.27;;
21254;SDS011;10785;50.674;17.954;2023-07-09T12:13:53;1.27;;;1.17;;
21254;SDS011;10785;50.674;17.954;2023-07-09T12:16:29;1.50;;;0.85;;
21254;SDS011;10785;50.674;17.954;2023-07-09T12:18:58;2.10;;;1.17;;
21254;SDS011;10785;50.674;17.954;2023-07-09T12:21:27;3.13;;;1.35;;
21254;SDS011;10785;50.674;17.954;2023-07-09T12:23:59;2.22;;;1.48;;
21254;SDS011;10785;50.674;17.954;2023-07-09T12:26:30;0.90;;;0.90;;
21254;SDS011;10785;50.674;17.954;2023-07-09T12:28:59;2.13;;;1.60;;
21254;SDS011;10785;50.674;17.954;2023-07-09T12:31:29;2.70;;;1.48;;
21254;SDS011;10785;50.674;17.954;2023-07-09T12:33:58;2.65;;;1.00;;
21254;SDS011;10785;50.674;17.954;2023-07-09T12:36:28;1.25;;;1.10;;
21254;SDS011;10785;50.674;17.954;2023-07-09T12:38:57;2.13;;;1.35;;
21254;SDS011;10785;50.674;17.954;2023-07-09T12:41:33;1.63;;;1.52;;
21254;SDS011;10785;50.674;17.954;2023-07-09T12:44:06;1.45;;;1.27;;
21254;SDS011;10785;50.674;17.954;2023-07-09T12:46:43;3.15;;;1.55;;
21254;SDS011;10785;50.674;17.954;2023-07-09T12:49:18;1.50;;;0.65;;
21254;SDS011;10785;50.674;17.954;2023-07-09T12:51:49;1.85;;;1.17;;
21254;SDS011;10785;50.674;17.954;2023-07-09T12:54:20;2.90;;;2.00;;
21254;SDS011;10785;50.674;17.954;2023-07-09T12:56:50;3.30;;;1.70;;
21254;SDS011;10785;50.674;17.954;2023-07-09T12:59:21;2.08;;;1.70;;
21254;SDS011;10785;50.674;17.954;2023-07-09T13:02:01;1.65;;;1.20;;
21254;SDS011;10785;50.674;17.954;2023-07-09T13:04:36;2.10;;;1.10;;
21254;SDS011;10785;50.674;17.954;2023-07-09T13:07:18;2.17;;;1.10;;
21254;SDS011;10785;50.674;17.954;2023-07-09T13:09:56;2.42;;;1.13;;
21254;SDS011;10785;50.674;17.954;2023-07-09T13:12:28;8.93;;;1.02;;
21254;SDS011;10785;50.674;17.954;2023-07-09T13:14:58;1.42;;;0.93;;
21254;SDS011;10785;50.674;17.954;2023-07-09T13:17:30;3.22;;;1.88;;
21254;SDS011;10785;50.674;17.954;2023-07-09T13:19:59;2.17;;;1.02;;
21254;SDS011;10785;50.674;17.954;2023-07-09T13:22:30;1.00;;;0.90;;
21254;SDS011;10785;50.674;17.954;2023-07-09T13:25:00;2.10;;;0.80;;
21254;SDS011;10785;50.674;17.954;2023-07-09T13:27:29;1.45;;;1.10;;
21254;SDS011;10785;50.674;17.954;2023-07-09T13:29:57;0.55;;;0.50;;
21254;SDS011;10785;50.674;17.954;2023-07-09T13:32:27;2.40;;;1.73;;
21254;SDS011;10785;50.674;17.954;2023-07-09T13:34:56;0.88;;;0.63;;
21254;SDS011;10785;50.674;17.954;2023-07-09T13:37:25;1.70;;;1.13;;
21254;SDS011;10785;50.674;17.954;2023-07-09T13:39:54;3.13;;;1.52;;
21254;SDS011;10785;50.674;17.954;2023-07-09T13:42:23;1.45;;;1.30;;
21254;SDS011;10785;50.674;17.954;2023-07-09T13:44:53;1.10;;;0.90;;
21254;SDS011;10785;50.674;17.954;2023-07-09T13:47:22;5.88;;;1.65;;
21254;SDS011;10785;50.674;17.954;2023-07-09T13:49:51;1.25;;;1.05;;
21254;SDS011;10785;50.674;17.954;2023-07-09T13:52:20;1.05;;;0.73;;
21254;SDS011;10785;50.674;17.954;2023-07-09T13:54:52;1.50;;;1.02;;
21254;SDS011;10785;50.674;17.954;2023-07-09T13:57:21;1.48;;;1.13;;
21254;SDS011;10785;50.674;17.954;2023-07-09T13:59:51;3.38;;;1.20;;
21254;SDS011;10785;50.674;17.954;2023-07-09T14:02:21;1.45;;;0.88;;
21254;SDS011;10785;50.674;17.954;2023-07-09T14:04:53;1.58;;;1.27;;
21254;SDS011;10785;50.674;17.954;2023-07-09T14:07:26;10.35;;;0.93;;
21254;SDS011;10785;50.674;17.954;2023-07-09T14:09:58;1.45;;;1.25;;
21254;SDS011;10785;50.674;17.954;2023-07-09T14:12:30;2.28;;;1.48;;
21254;SDS011;10785;50.674;17.954;2023-07-09T14:15:01;1.55;;;1.17;;
21254;SDS011;10785;50.674;17.954;2023-07-09T14:17:38;1.85;;;1.20;;
21254;SDS011;10785;50.674;17.954;2023-07-09T14:20:08;2.50;;;1.17;;
21254;SDS011;10785;50.674;17.954;2023-07-09T14:22:39;0.90;;;0.90;;
21254;SDS011;10785;50.674;17.954;2023-07-09T14:25:14;7.10;;;2.33;;
21254;SDS011;10785;50.674;17.954;2023-07-09T14:27:45;1.92;;;1.33;;
21254;SDS011;10785;50.674;17.954;2023-07-09T14:30:16;1.70;;;1.10;;
21254;SDS011;10785;50.674;17.954;2023-07-09T14:32:46;1.30;;;1.20;;
21254;SDS011;10785;50.674;17.954;2023-07-09T14:35:17;0.90;;;0.68;;
21254;SDS011;10785;50.674;17.954;2023-07-09T14:37:47;3.55;;;1.60;;
21254;SDS011;10785;50.674;17.954;2023-07-09T14:40:18;1.58;;;1.02;;
21254;SDS011;10785;50.674;17.954;2023-07-09T14:42:48;2.30;;;0.80;;
21254;SDS011;10785;50.674;17.954;2023-07-09T14:45:20;2.03;;;1.30;;
21254;SDS011;10785;50.674;17.954;2023-07-09T14:47:50;1.30;;;1.00;;
21254;SDS011;10785;50.674;17.954;2023-07-09T14:50:19;2.33;;;1.17;;
21254;SDS011;10785;50.674;17.954;2023-07-09T14:52:49;1.00;;;0.77;;
21254;SDS011;10785;50.674;17.954;2023-07-09T14:55:19;1.20;;;0.75;;
21254;SDS011;10785;50.674;17.954;2023-07-09T14:57:50;1.85;;;1.23;;
21254;SDS011;10785;50.674;17.954;2023-07-09T15:00:21;0.90;;;0.68;;
21254;SDS011;10785;50.674;17.954;2023-07-09T15:02:51;2.88;;;1.15;;
21254;SDS011;10785;50.674;17.954;2023-07-09T15:05:23;0.98;;;0.88;;
21254;SDS011;10785;50.674;17.954;2023-07-09T15:07:53;1.65;;;0.90;;